x

Gulf Of Maine - 78 Nm East Of Portsmouth, Nh (44005) Wave Buoy

3:50 - Thu 5th Mar 2015 All times are EST. -5 hours from GMT.

  • Sig Wave height 7.5ft
  • Peak Period 6s
  • Average Period 5s
  • Wind
    27mph, 31mph gusts
  • Sea Temp 40°f
  • Air Temp 25°f
  • Sea Pressure 1016.9mb
  • Gulf Of Maine - 78 Nm East Of Portsmouth, Nh
  • Gulf Of Maine - 78 Nm East Of Portsmouth, Nh

More Historic Weather Station data

Upgrade to MSW Pro to gain access to the past 30 days of data for over 8000 Wavebouys and Weather Stations around the globe.

Join Pro

Comparision Forecast

View Surf forecast
   
jeu. 03/05 3:50 7.5ft 6s 5s 27 31 mph 1016.9mb 40f 25f
2:50 8ft 6s 5s 25 29 mph 1016.7mb 40f 26f
1:50 7ft 6s 5s 25 29 mph 1015.7mb 39f 27f
12:50 7ft 6s 5s 25 31 mph 1014.7mb 38f 28f
11:50 7ft 10s 5s 22 29 mph 1015.1mb 38f 28f
10:50 6ft 10s 5s 25 31 mph 1014.8mb 38f 31f
9:50 6ft 11s 5s 20 25 mph 1013.9mb 38f 34f
8:50 5ft 11s 5s 20 25 mph 1013.5mb 38f 35f
7:50  -   -   -  18 22 mph 1013.1mb 38f 36f
6:50 6ft 11s 6s 20 27 mph 1012.1mb 38f 37f
5:50 6ft 11s 5s 13 18 mph 1010.9mb 39f 37f
4:50  -   -   -  25 29 mph 1010.1mb 39f 38f
3:50 7.5ft 9s 5s 22 27 mph 1008.3mb 39f 39f
2:50 9ft 11s 6s 25 31 mph 1007.8mb 39f 40f
1:50 9ft 6s 6s 27 34 mph 1007.8mb 39f 40f
12:50 8ft 9s 6s 27 29 mph 1007.1mb 39f 40f
mer. 03/04 11:50 7.5ft 6s 6s 27 31 mph 1006.9mb 39f 40f
10:50 7ft 10s 5s 27 31 mph 1006.7mb 39f 41f
9:50 6.5ft 10s 5s 25 29 mph 1006.4mb 39f 41f
7:50 6.5ft 9s 5s 22 27 mph 1006mb 38f 41f
6:50 7ft 8s 6s 22 25 mph 1006mb 38f 41f
5:50 7ft 8s 6s 20 22 mph 1006.2mb 38f 41f
4:50 7.5ft 8s 6s 18 22 mph 1005.5mb 38f 41f
3:50 7ft 9s 6s 16 20 mph 1005.1mb 38f 41f
2:50 6ft 7s 5s 20 22 mph 1004.5mb 38f 41f
1:50 6ft 7s 5s 20 25 mph 1004.6mb 38f 41f
12:50 6.5ft 7s 5s 20 25 mph 1004.9mb 39f 41f
11:50 6.5ft 8s 5s 20 25 mph 1004.8mb 40f 40f
10:50 7ft 8s 5s 22 27 mph 1004.1mb 40f 41f
9:50 7ft 8s 5s 22 27 mph 1003.7mb 40f 40f
8:50 8ft 8s 6s 22 27 mph 1003.6mb 40f 41f
7:50  -   -   -  25 29 mph 1003.2mb 40f 41f
6:50 9ft 8s 6s 27 34 mph 1002.3mb 40f 41f
5:50 9ft 8s 6s 25 31 mph 1001.6mb 40f 40f
4:50 10ft 8s 6s 20 27 mph 1001.6mb 40f 40f
3:50 11ft 8s 6s 20 22 mph 1001.6mb 40f 41f
2:50 8.5ft 7s 6s 22 29 mph 1003.3mb 40f 41f
1:50 10ft 7s 6s 29 36 mph 1005.2mb 39f 38f
12:50 9ft 7s 5s 31 38 mph 1006.4mb 39f 35f
mar. 03/03 11:50 8ft 6s 5s 29 36 mph 1009.3mb 39f 34f
10:50 7ft 6s 5s 27 34 mph 1012.8mb 39f 32f
9:50 6ft 5s 5s 27 34 mph 1015.3mb 39f 30f
8:50 5ft 5s 4s 29 36 mph 1016.7mb 39f 32f
7:50 3.5ft 4s 4s 27 31 mph 1018.6mb 39f 32f
6:50 3ft 3s 4s 20 27 mph 1020.3mb 39f 31f
5:50 2.5ft 3s 3s 20 25 mph 1021.2mb 38f 30f
4:50 2ft 10s 4s 16 20 mph 1022.2mb 38f 30f
3:50 2ft 10s 4s 11 16 mph 1023.4mb 38f 29f
2:50 2.5ft 10s 5s 11 16 mph 1024.8mb 38f 28f
1:50 2.5ft 4s 4s 7 11 mph 1025.4mb 38f 26f
12:50 2.5ft 4s 4s 9 13 mph 1026.2mb 39f 26f
11:50 3ft 4s 4s 9 13 mph 1027mb 39f 25f
10:50  -   -   -  13 18 mph 1027.2mb 39f 25f
9:50 3.5ft 5s 4s 13 18 mph 1027.2mb 38f 25f
8:50 4ft 5s 4s 13 20 mph 1027.3mb 38f 24f
7:50 4.5ft 5s 5s 13 20 mph 1027mb 38f 24f
6:50  -   -   -  16 20 mph 1026.6mb 38f 24f
5:50  -   -   -  20 25 mph 1025.6mb 38f 24f
4:50 5.5ft 6s 5s 22 27 mph 1024.7mb 38f 24f
3:50 7ft 7s 5s 22 27 mph 1023.5mb 38f 24f
2:50 8ft 7s 6s 22 29 mph 1022.7mb 38f 24f
1:50 9ft 7s 6s 25 31 mph 1022.1mb 38f 25f
12:50 10ft 7s 6s 25 31 mph 1021.1mb 39f 26f
lun. 03/02 11:50 10ft 7s 5s 27 36 mph 1019.2mb 39f 27f
10:50 9ft 7s 5s 34 40 mph 1017.9mb 39f 28f
9:50 9ft 7s 5s 38 45 mph 1016.5mb 39f 30f
8:50 9ft 7s 5s 31 38 mph 1016.1mb 39f 31f
7:50 10.5ft 7s 6s 31 38 mph 1015.2mb 39f 31f
6:50 9ft 7s 5s 36 43 mph 1013.6mb 39f 33f
5:50 9ft 7s 6s 29 38 mph 1012.7mb 39f 33f
4:50 9ft 7s 5s 31 38 mph 1011.2mb 39f 33f
3:50 7.5ft 5s 5s 36 43 mph 1009.8mb 39f 34f
2:50 5ft 5s 4s 29 36 mph 1009.4mb 39f 35f
1:50 4ft 4s 4s 29 38 mph 1008.8mb 39f 34f
12:50 3ft 4s 4s 22 29 mph 1009.5mb 39f 32f
11:50 3ft 4s 4s 13 20 mph 1010.2mb 39f 29f
10:50 3ft 4s 4s 16 20 mph 1010.1mb 39f 30f
9:50 3ft 4s 4s 16 20 mph 1010mb 39f 30f
8:50 3.5ft 6s 4s 18 22 mph 1010mb 39f 31f
7:50 3.5ft 6s 4s 13 18 mph 1010.3mb 39f 31f
6:50 4ft 6s 4s 18 20 mph 1010.5mb 39f 31f
5:50 4ft 6s 4s 16 20 mph 1011.1mb 39f 31f
4:50 4.5ft 6s 4s 18 20 mph 1011.7mb 39f 31f
3:50 4.5ft 6s 5s 16 22 mph 1012.3mb 39f 32f
2:50 5ft 6s 5s 18 22 mph 1013.3mb 39f 33f
1:50 4.5ft 6s 5s 18 22 mph 1015.3mb 39f 34f
12:50 4.5ft 6s 5s 18 27 mph 1017.1mb 39f 34f
dim. 03/01 11:50 5ft 6s 5s 20 27 mph 1018.4mb 39f 34f
10:50 5ft 6s 5s 18 25 mph 1020.2mb 39f 33f
9:50 5.5ft 6s 5s 20 27 mph 1021.5mb 39f 33f